Time;durP1;ratioP1;P1;durP2;ratioP2;P2;SDS_P1;SDS_P2;PMS_P1;PMS_P2;Temp;Humidity;BMP_temperature;BMP_pressure;BME280_temperature;BME280_humidity;BME280_pressure;Samples;Min_cycle;Max_cycle;Signal;HPM_P1;HPM_P2
2021/04/23 00:00:57;;;;;;;16.42;5.18;;;;;;;;;;5073503;28;20028;-68
2021/04/23 00:03:28;;;;;;;18.77;4.15;;;;;;;;;;5073520;28;20074;-67
2021/04/23 00:05:56;;;;;;;21.40;5.32;;;;;;;;;;5063876;28;20028;-68
2021/04/23 00:08:22;;;;;;;19.40;4.63;;;;;;;;;;5071723;28;20020;-68
2021/04/23 00:10:47;;;;;;;25.35;6.00;;;;;;;;;;5072758;28;20481;-68
2021/04/23 00:13:13;;;;;;;14.15;4.38;;;;;;;;;;5070903;28;20028;-67
2021/04/23 00:15:38;;;;;;;16.75;7.20;;;;;;;;;;5068428;28;20380;-67
2021/04/23 00:18:04;;;;;;;26.98;8.80;;;;;;;;;;5055092;28;20516;-67
2021/04/23 00:20:29;;;;;;;33.65;8.10;;;;;;;;;;5055004;28;20028;-67
2021/04/23 00:22:55;;;;;;;36.17;9.65;;;;;;;;;;5041923;28;20043;-67
2021/04/23 00:25:26;;;;;;;25.55;8.95;;;;;;;;;;5070371;28;20032;-67
2021/04/23 00:27:53;;;;;;;28.98;8.68;;;;;;;;;;5090240;22;20127;-63
2021/04/23 00:30:19;;;;;;;23.17;8.00;;;;;;;;;;5063115;28;20013;-63
2021/04/23 00:32:53;;;;;;;28.45;7.38;;;;;;;;;;5072670;28;20017;-63
2021/04/23 00:35:19;;;;;;;24.48;6.75;;;;;;;;;;5054811;28;20476;-62
2021/04/23 00:37:48;;;;;;;19.88;5.97;;;;;;;;;;5072387;28;20073;-64
2021/04/23 00:40:17;;;;;;;22.23;6.57;;;;;;;;;;5072509;28;20052;-63
2021/04/23 00:42:43;;;;;;;26.40;6.47;;;;;;;;;;5072385;28;20031;-63
2021/04/23 00:45:10;;;;;;;18.77;5.30;;;;;;;;;;5072978;28;20326;-63
2021/04/23 00:47:35;;;;;;;19.80;5.80;;;;;;;;;;5058795;28;20410;-62
2021/04/23 00:50:00;;;;;;;19.75;5.45;;;;;;;;;;5072093;28;20055;-63
2021/04/23 00:52:25;;;;;;;21.58;5.28;;;;;;;;;;5072593;28;20071;-63
2021/04/23 00:54:50;;;;;;;24.73;5.15;;;;;;;;;;5072400;28;20372;-63
2021/04/23 00:57:15;;;;;;;16.30;6.83;;;;;;;;;;5070176;28;20031;-63
2021/04/23 00:59:41;;;;;;;8.20;4.50;;;;;;;;;;5071714;28;20271;-62
2021/04/23 01:02:09;;;;;;;26.73;5.85;;;;;;;;;;5072443;28;20279;-64
2021/04/23 01:04:35;;;;;;;15.68;5.95;;;;;;;;;;5072305;28;20631;-63
2021/04/23 01:07:00;;;;;;;21.85;5.65;;;;;;;;;;5069332;28;20028;-63
2021/04/23 01:09:27;;;;;;;19.88;6.35;;;;;;;;;;5071745;28;20040;-63
2021/04/23 01:11:53;;;;;;;20.20;6.45;;;;;;;;;;5072195;28;20021;-63
2021/04/23 01:14:19;;;;;;;22.17;6.32;;;;;;;;;;5063617;28;20065;-64
2021/04/23 01:16:45;;;;;;;32.80;6.22;;;;;;;;;;5071691;28;20036;-63
2021/04/23 01:19:13;;;;;;;26.15;7.13;;;;;;;;;;5071988;28;20021;-63
2021/04/23 01:21:39;;;;;;;18.25;5.80;;;;;;;;;;5071965;28;20028;-63
2021/04/23 01:24:05;;;;;;;17.45;6.00;;;;;;;;;;5071703;28;20499;-63
2021/04/23 01:26:32;;;;;;;19.02;6.72;;;;;;;;;;5071309;28;20559;-63
2021/04/23 01:28:58;;;;;;;21.83;6.32;;;;;;;;;;5060438;28;20044;-63
2021/04/23 01:31:26;;;;;;;14.23;5.82;;;;;;;;;;5069728;28;20074;-64
2021/04/23 01:33:54;;;;;;;17.60;5.55;;;;;;;;;;5071895;28;20028;-64
2021/04/23 01:36:19;;;;;;;15.25;6.55;;;;;;;;;;5071571;28;20539;-63
2021/04/23 01:38:46;;;;;;;17.83;5.85;;;;;;;;;;5070748;28;20021;-64
2021/04/23 01:41:11;;;;;;;16.17;5.72;;;;;;;;;;5071725;28;20070;-64
2021/04/23 01:43:37;;;;;;;14.85;5.78;;;;;;;;;;5071417;28;20028;-64
2021/04/23 01:46:04;;;;;;;16.90;6.10;;;;;;;;;;5071570;28;20020;-63
2021/04/23 01:48:29;;;;;;;15.82;5.68;;;;;;;;;;5071352;28;20021;-63
2021/04/23 01:50:54;;;;;;;17.95;6.50;;;;;;;;;;5071032;28;20059;-63
2021/04/23 01:53:20;;;;;;;15.23;5.68;;;;;;;;;;5070703;28;20028;-63
2021/04/23 01:55:45;;;;;;;16.05;5.50;;;;;;;;;;5071318;28;20428;-63
2021/04/23 01:58:11;;;;;;;18.17;5.65;;;;;;;;;;5070779;28;20028;-63
2021/04/23 02:00:39;;;;;;;19.15;6.65;;;;;;;;;;5071326;28;20036;-63
2021/04/23 02:03:06;;;;;;;15.80;5.90;;;;;;;;;;5069521;28;20054;-64
2021/04/23 02:05:32;;;;;;;17.85;6.07;;;;;;;;;;5071167;28;20065;-63
2021/04/23 02:07:57;;;;;;;18.40;6.00;;;;;;;;;;5070894;28;20100;-63
2021/04/23 02:10:24;;;;;;;16.20;6.07;;;;;;;;;;5071369;28;20017;-63
2021/04/23 02:12:49;;;;;;;12.13;5.95;;;;;;;;;;5071403;28;20388;-64
2021/04/23 02:15:15;;;;;;;18.15;5.75;;;;;;;;;;5071273;28;20024;-63
2021/04/23 02:17:41;;;;;;;21.50;7.25;;;;;;;;;;5070456;28;20829;-63
2021/04/23 02:20:11;;;;;;;20.20;6.13;;;;;;;;;;5070860;28;20019;-63
2021/04/23 02:22:36;;;;;;;21.83;6.13;;;;;;;;;;5071058;28;20036;-63
2021/04/23 02:25:01;;;;;;;15.10;6.57;;;;;;;;;;5070584;28;20484;-63
2021/04/23 02:27:27;;;;;;;23.10;6.70;;;;;;;;;;5070211;28;20036;-62
2021/04/23 02:29:52;;;;;;;18.08;5.57;;;;;;;;;;5069929;28;20480;-63
2021/04/23 02:32:17;;;;;;;16.75;6.15;;;;;;;;;;5070149;28;20051;-63
2021/04/23 02:34:42;;;;;;;15.32;6.18;;;;;;;;;;5066704;28;20135;-63
2021/04/23 02:37:08;;;;;;;17.58;5.90;;;;;;;;;;5064698;28;20017;-63
2021/04/23 02:39:33;;;;;;;18.85;6.65;;;;;;;;;;5068374;28;20436;-62
2021/04/23 02:41:58;;;;;;;16.67;5.53;;;;;;;;;;5069710;28;20626;-63
2021/04/23 02:44:25;;;;;;;23.80;6.82;;;;;;;;;;5066150;28;20259;-63
2021/04/23 02:46:51;;;;;;;20.27;6.80;;;;;;;;;;5058639;28;20048;-63
2021/04/23 02:49:16;;;;;;;18.80;7.10;;;;;;;;;;5069596;28;20052;-64
2021/04/23 02:51:43;;;;;;;17.00;6.38;;;;;;;;;;5066735;28;20028;-62
2021/04/23 02:54:08;;;;;;;19.02;6.43;;;;;;;;;;5064367;28;20120;-63
2021/04/23 02:56:34;;;;;;;18.33;6.35;;;;;;;;;;5064229;28;20107;-63
2021/04/23 02:58:59;;;;;;;18.73;5.38;;;;;;;;;;5068899;28;20021;-63
2021/04/23 03:01:28;;;;;;;20.48;5.68;;;;;;;;;;5069762;28;20016;-63
2021/04/23 03:03:53;;;;;;;18.15;6.38;;;;;;;;;;5069408;28;20025;-63
2021/04/23 03:06:18;;;;;;;11.73;5.70;;;;;;;;;;5069234;28;20085;-63
2021/04/23 03:08:44;;;;;;;18.20;6.13;;;;;;;;;;5067200;28;20033;-63
2021/04/23 03:11:11;;;;;;;22.25;7.60;;;;;;;;;;5068844;28;20035;-62
2021/04/23 03:13:37;;;;;;;16.63;7.00;;;;;;;;;;5068190;28;20025;-62
2021/04/23 03:16:03;;;;;;;11.82;5.60;;;;;;;;;;5068705;28;20013;-64
2021/04/23 03:18:30;;;;;;;26.90;5.93;;;;;;;;;;5068551;28;20549;-63
2021/04/23 03:20:56;;;;;;;17.52;5.95;;;;;;;;;;5069244;28;20047;-64
2021/04/23 03:23:22;;;;;;;17.13;6.18;;;;;;;;;;5067884;28;20037;-63
2021/04/23 03:25:47;;;;;;;21.40;6.60;;;;;;;;;;5068769;28;20019;-64
2021/04/23 03:28:13;;;;;;;24.42;6.45;;;;;;;;;;5047155;28;553259;-65
2021/04/23 03:30:40;;;;;;;22.38;6.18;;;;;;;;;;5070379;28;20263;-64
2021/04/23 03:33:06;;;;;;;20.00;5.93;;;;;;;;;;5069915;28;20063;-64
2021/04/23 03:35:31;;;;;;;16.67;6.55;;;;;;;;;;5070072;28;20093;-64
2021/04/23 03:37:57;;;;;;;19.23;6.90;;;;;;;;;;5069197;28;20055;-63
2021/04/23 03:40:23;;;;;;;20.92;7.72;;;;;;;;;;5066178;28;20523;-64
2021/04/23 03:42:49;;;;;;;20.88;6.70;;;;;;;;;;5069963;28;20013;-64
2021/04/23 03:45:15;;;;;;;21.48;5.93;;;;;;;;;;5069528;28;20031;-63
2021/04/23 03:47:40;;;;;;;18.67;6.35;;;;;;;;;;5069675;28;20093;-64
2021/04/23 03:50:06;;;;;;;19.60;6.30;;;;;;;;;;5069510;28;20044;-64
2021/04/23 03:52:32;;;;;;;15.35;6.18;;;;;;;;;;5069244;28;20025;-64
2021/04/23 03:54:57;;;;;;;21.58;6.68;;;;;;;;;;5069377;28;20024;-64
2021/04/23 03:57:23;;;;;;;21.73;6.50;;;;;;;;;;5068806;28;20460;-64
2021/04/23 03:59:48;;;;;;;19.75;6.60;;;;;;;;;;5069418;28;20021;-63
2021/04/23 04:02:13;;;;;;;19.80;6.53;;;;;;;;;;5069505;28;20020;-64
2021/04/23 04:04:38;;;;;;;19.25;7.10;;;;;;;;;;5069562;28;20259;-63
2021/04/23 04:07:03;;;;;;;19.08;6.72;;;;;;;;;;5069419;28;20074;-63
2021/04/23 04:09:28;;;;;;;25.20;6.55;;;;;;;;;;5068994;28;20032;-63
2021/04/23 04:11:54;;;;;;;28.98;6.43;;;;;;;;;;5069173;28;20039;-64
2021/04/23 04:14:19;;;;;;;18.33;7.10;;;;;;;;;;5066647;28;20286;-63
2021/04/23 04:16:44;;;;;;;25.52;6.53;;;;;;;;;;5069591;28;20445;-64
2021/04/23 04:19:10;;;;;;;22.13;6.63;;;;;;;;;;5069094;28;20032;-62
2021/04/23 04:21:35;;;;;;;16.73;6.45;;;;;;;;;;5068811;28;20058;-63
2021/04/23 04:24:00;;;;;;;18.20;6.80;;;;;;;;;;5069063;28;20431;-63
2021/04/23 04:26:26;;;;;;;21.40;7.05;;;;;;;;;;5072188;28;20032;-63
2021/04/23 04:28:51;;;;;;;23.20;7.03;;;;;;;;;;5070636;28;20025;-63
2021/04/23 04:31:17;;;;;;;20.52;7.68;;;;;;;;;;5062874;28;20028;-63
2021/04/23 04:33:42;;;;;;;18.25;6.25;;;;;;;;;;5058450;28;20029;-63
2021/04/23 04:36:07;;;;;;;24.95;7.53;;;;;;;;;;5068059;28;20021;-63
2021/04/23 04:38:33;;;;;;;28.00;6.72;;;;;;;;;;5058799;28;20562;-62
2021/04/23 04:40:59;;;;;;;38.60;7.97;;;;;;;;;;5071620;28;20024;-63
2021/04/23 04:43:24;;;;;;;23.52;7.90;;;;;;;;;;5070361;28;20029;-63
2021/04/23 04:45:50;;;;;;;20.00;6.93;;;;;;;;;;5071931;28;20098;-63
2021/04/23 04:48:15;;;;;;;19.98;7.15;;;;;;;;;;5071201;28;20048;-63
2021/04/23 04:50:43;;;;;;;20.88;6.30;;;;;;;;;;5068744;28;20040;-64
2021/04/23 04:53:09;;;;;;;15.77;7.03;;;;;;;;;;5065546;28;20021;-63
2021/04/23 04:55:36;;;;;;;23.00;7.30;;;;;;;;;;5062521;28;20086;-63
2021/04/23 04:58:02;;;;;;;19.67;6.55;;;;;;;;;;5070879;28;20353;-62
2021/04/23 05:00:28;;;;;;;23.50;6.97;;;;;;;;;;5069883;28;20020;-63
2021/04/23 05:02:54;;;;;;;17.95;7.45;;;;;;;;;;5070799;28;20020;-63
2021/04/23 05:05:20;;;;;;;22.30;8.52;;;;;;;;;;5056166;28;20024;-63
2021/04/23 05:07:45;;;;;;;28.08;7.28;;;;;;;;;;5066553;28;20017;-63
2021/04/23 05:10:11;;;;;;;21.15;7.63;;;;;;;;;;5063018;28;20031;-62
2021/04/23 05:12:37;;;;;;;19.40;7.13;;;;;;;;;;5071390;28;20025;-62
2021/04/23 05:15:03;;;;;;;25.08;7.88;;;;;;;;;;5061745;28;20017;-63
2021/04/23 05:17:28;;;;;;;21.88;8.55;;;;;;;;;;5062883;28;21693;-62
2021/04/23 05:19:53;;;;;;;29.83;8.90;;;;;;;;;;5071019;28;20100;-66
2021/04/23 05:22:19;;;;;;;28.00;7.57;;;;;;;;;;5070715;28;20043;-63
2021/04/23 05:24:44;;;;;;;22.38;8.02;;;;;;;;;;5070320;28;20077;-63
2021/04/23 05:27:09;;;;;;;19.33;8.48;;;;;;;;;;5070405;28;20063;-63
2021/04/23 05:29:34;;;;;;;22.95;7.90;;;;;;;;;;5070488;28;20028;-63
2021/04/23 05:32:01;;;;;;;27.63;8.55;;;;;;;;;;5071008;28;20055;-62
2021/04/23 05:34:27;;;;;;;24.63;8.23;;;;;;;;;;5070356;28;20477;-65
2021/04/23 05:36:52;;;;;;;25.77;8.82;;;;;;;;;;5069750;28;20082;-63
2021/04/23 05:39:17;;;;;;;25.58;9.52;;;;;;;;;;5069906;28;20027;-63
2021/04/23 05:41:43;;;;;;;27.45;8.93;;;;;;;;;;5064074;28;20012;-63
2021/04/23 05:44:08;;;;;;;23.17;8.90;;;;;;;;;;5054314;28;20021;-62
2021/04/23 05:46:34;;;;;;;28.58;10.48;;;;;;;;;;5053257;28;20105;-63
2021/04/23 05:48:59;;;;;;;34.30;9.20;;;;;;;;;;5068837;28;20017;-64
2021/04/23 05:51:24;;;;;;;21.45;8.73;;;;;;;;;;5067248;28;20035;-62
2021/04/23 05:53:49;;;;;;;37.92;10.32;;;;;;;;;;5070092;28;20027;-63
2021/04/23 05:56:15;;;;;;;29.08;9.32;;;;;;;;;;5062788;28;20028;-63
2021/04/23 05:58:40;;;;;;;18.55;8.55;;;;;;;;;;5064681;28;20622;-63
2021/04/23 06:01:05;;;;;;;25.60;8.40;;;;;;;;;;5065925;28;20110;-64
2021/04/23 06:03:30;;;;;;;29.20;9.45;;;;;;;;;;5067865;28;20309;-63
2021/04/23 06:05:55;;;;;;;21.87;8.37;;;;;;;;;;5059224;28;20431;-63
2021/04/23 06:08:20;;;;;;;25.17;8.50;;;;;;;;;;5071215;28;20263;-62
2021/04/23 06:10:46;;;;;;;18.05;8.60;;;;;;;;;;5069282;28;21259;-63
2021/04/23 06:13:12;;;;;;;32.97;11.48;;;;;;;;;;5070184;28;20040;-63
2021/04/23 06:15:37;;;;;;;24.58;9.63;;;;;;;;;;5071304;28;20040;-62
2021/04/23 06:18:04;;;;;;;23.60;9.70;;;;;;;;;;5070392;28;20013;-62
2021/04/23 06:20:30;;;;;;;25.73;10.82;;;;;;;;;;5071130;28;20028;-62
2021/04/23 06:22:56;;;;;;;37.58;11.27;;;;;;;;;;5070630;28;20024;-62
2021/04/23 06:25:21;;;;;;;26.75;10.15;;;;;;;;;;5071142;28;20546;-62
2021/04/23 06:27:47;;;;;;;31.83;11.00;;;;;;;;;;5088802;22;20051;-66
2021/04/23 06:30:14;;;;;;;26.45;10.77;;;;;;;;;;5085369;28;20020;-66
2021/04/23 06:32:42;;;;;;;26.00;11.00;;;;;;;;;;5082452;28;20039;-67
2021/04/23 06:35:08;;;;;;;34.03;10.77;;;;;;;;;;5071134;28;20109;-66
2021/04/23 06:37:33;;;;;;;30.83;9.35;;;;;;;;;;5077315;28;20067;-66
2021/04/23 06:39:58;;;;;;;27.03;9.83;;;;;;;;;;5090013;28;20065;-67
2021/04/23 06:42:23;;;;;;;25.17;9.50;;;;;;;;;;5089882;28;20269;-66
2021/04/23 06:44:48;;;;;;;31.17;9.63;;;;;;;;;;5089897;28;20265;-67
2021/04/23 06:47:14;;;;;;;28.45;10.52;;;;;;;;;;5090339;28;20278;-64
2021/04/23 06:49:39;;;;;;;28.30;9.13;;;;;;;;;;5089571;28;20016;-64
2021/04/23 06:52:04;;;;;;;26.67;9.88;;;;;;;;;;5081427;28;20104;-64
2021/04/23 06:54:29;;;;;;;21.58;8.35;;;;;;;;;;5090514;28;20036;-64
2021/04/23 06:56:55;;;;;;;32.22;8.48;;;;;;;;;;5090636;28;20012;-64
2021/04/23 06:59:20;;;;;;;21.23;7.88;;;;;;;;;;5090724;28;20035;-64
2021/04/23 07:01:45;;;;;;;22.02;6.68;;;;;;;;;;5090607;28;20047;-64
2021/04/23 07:04:10;;;;;;;26.13;7.63;;;;;;;;;;5088688;28;20073;-64
2021/04/23 07:06:39;;;;;;;20.63;7.53;;;;;;;;;;5090351;28;20035;-64
2021/04/23 07:09:05;;;;;;;15.95;6.13;;;;;;;;;;5089392;28;20020;-65
2021/04/23 07:11:30;;;;;;;22.33;7.28;;;;;;;;;;5090669;28;20535;-65
2021/04/23 07:13:55;;;;;;;19.13;6.83;;;;;;;;;;5090320;28;20563;-64
2021/04/23 07:16:20;;;;;;;21.97;6.67;;;;;;;;;;5089671;28;20262;-65
2021/04/23 07:18:45;;;;;;;19.30;6.57;;;;;;;;;;5090147;28;20269;-64
2021/04/23 07:21:11;;;;;;;27.40;7.37;;;;;;;;;;5090654;28;20288;-65
2021/04/23 07:23:36;;;;;;;17.00;6.47;;;;;;;;;;5090097;28;20360;-65
2021/04/23 07:26:01;;;;;;;18.50;6.93;;;;;;;;;;5090509;28;20343;-65
2021/04/23 07:28:26;;;;;;;20.43;7.87;;;;;;;;;;5089440;28;20051;-65
2021/04/23 07:30:51;;;;;;;20.48;6.10;;;;;;;;;;5089819;28;20262;-66
2021/04/23 07:33:17;;;;;;;16.77;6.53;;;;;;;;;;5090171;28;20074;-65
2021/04/23 07:35:44;;;;;;;17.92;7.07;;;;;;;;;;5090399;28;20053;-65
2021/04/23 07:38:09;;;;;;;12.05;5.68;;;;;;;;;;5086747;28;20028;-64
2021/04/23 07:40:34;;;;;;;14.83;6.33;;;;;;;;;;5088753;28;20016;-65
2021/04/23 07:43:00;;;;;;;16.63;6.55;;;;;;;;;;5087320;28;20262;-65
2021/04/23 07:45:25;;;;;;;19.73;6.65;;;;;;;;;;5088860;28;20022;-65
2021/04/23 07:47:51;;;;;;;15.75;6.18;;;;;;;;;;5086606;28;20020;-65
2021/04/23 07:50:17;;;;;;;20.93;6.23;;;;;;;;;;5084412;28;20024;-65
2021/04/23 07:52:43;;;;;;;14.13;5.88;;;;;;;;;;5087542;28;20027;-65
2021/04/23 07:55:10;;;;;;;16.98;6.15;;;;;;;;;;5084970;28;20053;-65
2021/04/23 07:57:36;;;;;;;22.48;6.45;;;;;;;;;;5089647;28;20016;-70
2021/04/23 08:00:01;;;;;;;22.10;6.05;;;;;;;;;;5086636;28;20035;-65
2021/04/23 08:02:27;;;;;;;22.35;6.82;;;;;;;;;;5092829;28;20031;-64
2021/04/23 08:04:52;;;;;;;16.30;6.40;;;;;;;;;;5093220;28;20032;-64
2021/04/23 08:07:17;;;;;;;19.75;7.05;;;;;;;;;;5093168;28;20051;-64
2021/04/23 08:09:42;;;;;;;15.65;6.30;;;;;;;;;;5083560;28;20028;-64
2021/04/23 08:12:08;;;;;;;19.20;6.40;;;;;;;;;;5091168;28;20048;-67
2021/04/23 08:14:33;;;;;;;16.02;6.03;;;;;;;;;;5092941;28;20071;-64
2021/04/23 08:16:59;;;;;;;15.45;6.00;;;;;;;;;;5092963;28;20029;-65
2021/04/23 08:19:25;;;;;;;13.80;5.05;;;;;;;;;;5092720;28;20030;-70
2021/04/23 08:21:50;;;;;;;14.48;5.50;;;;;;;;;;5088758;28;20070;-70
2021/04/23 08:24:15;;;;;;;10.50;4.68;;;;;;;;;;5092253;28;20024;-64
2021/04/23 08:26:42;;;;;;;13.73;5.18;;;;;;;;;;5093027;28;20449;-66
2021/04/23 08:29:08;;;;;;;16.15;5.00;;;;;;;;;;5092860;28;20048;-63
2021/04/23 08:31:33;;;;;;;14.07;5.47;;;;;;;;;;5093567;28;20469;-67
2021/04/23 08:33:58;;;;;;;12.63;5.07;;;;;;;;;;5092639;28;20020;-67
2021/04/23 08:36:23;;;;;;;9.80;4.57;;;;;;;;;;5093247;28;20031;-64
2021/04/23 08:38:49;;;;;;;11.47;5.23;;;;;;;;;;5088818;28;20059;-66
2021/04/23 08:41:14;;;;;;;11.88;4.80;;;;;;;;;;5091288;28;20326;-64
2021/04/23 08:43:39;;;;;;;10.17;4.67;;;;;;;;;;5093078;28;20080;-64
2021/04/23 08:46:04;;;;;;;16.55;4.72;;;;;;;;;;5092900;28;20258;-65
2021/04/23 08:48:30;;;;;;;18.42;4.57;;;;;;;;;;5091218;28;20062;-64
2021/04/23 08:50:55;;;;;;;10.27;4.15;;;;;;;;;;5093025;28;20072;-67
2021/04/23 08:53:23;;;;;;;17.08;5.10;;;;;;;;;;5085135;28;20496;-64
2021/04/23 08:55:48;;;;;;;14.00;4.30;;;;;;;;;;5092460;28;20020;-66
2021/04/23 08:58:14;;;;;;;13.10;4.57;;;;;;;;;;5091997;28;20354;-64
2021/04/23 09:00:40;;;;;;;8.77;3.65;;;;;;;;;;5092090;28;20024;-66
2021/04/23 09:03:08;;;;;;;9.30;4.20;;;;;;;;;;5092740;28;20631;-64
2021/04/23 09:05:33;;;;;;;13.05;4.47;;;;;;;;;;5092555;28;20027;-64
2021/04/23 09:07:59;;;;;;;17.58;5.05;;;;;;;;;;5091890;28;20095;-65
2021/04/23 09:10:24;;;;;;;19.15;4.28;;;;;;;;;;5090895;28;20024;-65
2021/04/23 09:13:03;;;;;;;12.63;4.30;;;;;;;;;;5091829;28;20016;-67
2021/04/23 09:15:28;;;;;;;9.88;4.05;;;;;;;;;;5087080;28;20480;-64
2021/04/23 09:18:12;;;;;;;11.77;4.43;;;;;;;;;;5091671;28;20086;-64
2021/04/23 09:20:39;;;;;;;17.95;4.50;;;;;;;;;;5085134;28;20623;-63
2021/04/23 09:23:05;;;;;;;11.93;3.95;;;;;;;;;;5072832;28;20017;-66
2021/04/23 09:25:37;;;;;;;12.52;4.03;;;;;;;;;;5087898;28;20031;-65
2021/04/23 09:28:03;;;;;;;11.07;4.28;;;;;;;;;;5091835;28;20042;-66
2021/04/23 09:30:30;;;;;;;10.63;4.25;;;;;;;;;;5092083;28;20479;-65
2021/04/23 09:32:55;;;;;;;7.88;3.55;;;;;;;;;;5091907;28;20101;-65
2021/04/23 09:35:20;;;;;;;15.23;4.00;;;;;;;;;;5089570;28;20056;-65
2021/04/23 09:37:54;;;;;;;11.88;4.18;;;;;;;;;;5091712;28;20942;-65
2021/04/23 09:40:20;;;;;;;13.57;4.32;;;;;;;;;;5091257;28;20016;-66
2021/04/23 09:42:53;;;;;;;15.85;4.40;;;;;;;;;;5092033;28;20119;-66
2021/04/23 09:45:22;;;;;;;16.75;4.65;;;;;;;;;;5091124;28;20024;-66
2021/04/23 09:47:48;;;;;;;12.13;4.05;;;;;;;;;;5091462;28;20024;-66
2021/04/23 09:50:14;;;;;;;10.18;4.30;;;;;;;;;;5092664;28;20035;-64
2021/04/23 09:52:53;;;;;;;17.60;6.43;;;;;;;;;;5091341;28;20028;-65
2021/04/23 09:55:19;;;;;;;14.40;4.55;;;;;;;;;;5091055;28;20062;-66
2021/04/23 09:57:49;;;;;;;16.77;2.15;;;;;;;;;;5091365;28;20020;-66
2021/04/23 10:00:14;;;;;;;15.80;3.90;;;;;;;;;;5091410;28;20058;-65
2021/04/23 10:02:40;;;;;;;11.25;4.65;;;;;;;;;;5085569;28;20067;-67
2021/04/23 10:05:05;;;;;;;10.52;3.63;;;;;;;;;;5082913;28;20540;-66
2021/04/23 10:07:32;;;;;;;18.20;4.53;;;;;;;;;;5087995;28;20022;-66
2021/04/23 10:09:57;;;;;;;11.73;5.00;;;;;;;;;;5089230;28;20111;-66
2021/04/23 10:12:37;;;;;;;10.48;4.18;;;;;;;;;;5090885;28;20055;-66
2021/04/23 10:15:07;;;;;;;9.35;4.15;;;;;;;;;;5090951;28;20077;-66
2021/04/23 10:17:32;;;;;;;10.40;4.80;;;;;;;;;;5091062;28;20028;-66
2021/04/23 10:19:58;;;;;;;10.32;4.30;;;;;;;;;;5090841;28;20115;-66
2021/04/23 10:22:24;;;;;;;14.23;4.80;;;;;;;;;;5090278;28;20103;-66
2021/04/23 10:24:50;;;;;;;9.38;4.05;;;;;;;;;;5079854;28;20043;-67
2021/04/23 10:27:16;;;;;;;11.20;3.88;;;;;;;;;;5090555;28;20032;-67
2021/04/23 10:29:43;;;;;;;17.83;4.97;;;;;;;;;;5090541;28;20020;-68
2021/04/23 10:32:08;;;;;;;11.48;4.40;;;;;;;;;;5090732;28;20012;-64
2021/04/23 10:34:33;;;;;;;12.20;4.85;;;;;;;;;;5090100;28;20027;-65
2021/04/23 10:36:59;;;;;;;13.43;4.78;;;;;;;;;;5090737;28;20099;-65
2021/04/23 10:39:24;;;;;;;13.00;4.45;;;;;;;;;;5090309;28;20043;-65
2021/04/23 10:41:49;;;;;;;13.82;4.78;;;;;;;;;;5089437;28;20012;-65
2021/04/23 10:44:17;;;;;;;15.10;4.50;;;;;;;;;;5091114;28;20028;-65
2021/04/23 10:46:51;;;;;;;11.20;5.15;;;;;;;;;;5090182;28;20668;-64
2021/04/23 10:49:17;;;;;;;20.20;4.80;;;;;;;;;;5090047;28;20020;-65
2021/04/23 10:51:43;;;;;;;11.73;4.65;;;;;;;;;;5090387;28;20051;-65
2021/04/23 10:54:13;;;;;;;14.13;4.97;;;;;;;;;;5090308;28;20035;-66
2021/04/23 10:56:38;;;;;;;;;;;;;;;;;;5091185;28;20047;-66
2021/04/23 10:59:05;;;;;;;20.35;5.50;;;;;;;;;;5089499;28;19997;-66
2021/04/23 11:01:34;;;;;;;10.65;4.20;;;;;;;;;;5090161;28;20039;-65
2021/04/23 11:04:04;;;;;;;13.85;5.38;;;;;;;;;;5089337;28;20027;-65
2021/04/23 11:06:39;;;;;;;15.00;4.82;;;;;;;;;;5087856;28;20128;-66
2021/04/23 11:09:06;;;;;;;18.08;7.38;;;;;;;;;;5088454;28;20039;-65
2021/04/23 11:11:32;;;;;;;10.68;4.00;;;;;;;;;;5089317;28;20020;-66
2021/04/23 11:14:16;;;;;;;17.77;5.90;;;;;;;;;;5090345;28;20043;-66
2021/04/23 11:16:41;;;;;;;16.67;6.63;;;;;;;;;;5080695;28;20016;-66
2021/04/23 11:19:22;;;;;;;16.52;4.30;;;;;;;;;;5089329;28;20405;-65
2021/04/23 11:21:47;;;;;;;;;;;;;;;;;;5089811;28;20012;-65
2021/04/23 11:24:18;;;;;;;14.77;5.03;;;;;;;;;;5089271;28;19908;-66
2021/04/23 11:27:03;;;;;;;14.35;5.22;;;;;;;;;;5086948;28;20039;-65
2021/04/23 11:29:31;;;;;;;15.15;5.85;;;;;;;;;;5089000;28;20032;-65
2021/04/23 11:32:15;;;;;;;14.73;5.80;;;;;;;;;;5090118;28;20028;-65
2021/04/23 11:34:42;;;;;;;10.98;5.70;;;;;;;;;;5089173;28;20065;-66
2021/04/23 11:37:09;;;;;;;15.70;6.65;;;;;;;;;;5094323;28;20024;-66
2021/04/23 11:39:40;;;;;;;13.45;5.95;;;;;;;;;;5093130;28;20028;-65
2021/04/23 11:42:06;;;;;;;15.88;5.13;;;;;;;;;;5094659;28;20024;-65
2021/04/23 11:44:42;;;;;;;19.13;6.85;;;;;;;;;;5086690;28;20044;-66
2021/04/23 11:47:08;;;;;;;17.17;6.63;;;;;;;;;;5087590;28;20089;-65
2021/04/23 11:49:33;;;;;;;12.65;5.72;;;;;;;;;;5092770;28;20066;-65
2021/04/23 11:52:01;;;;;;;21.38;7.72;;;;;;;;;;5093710;28;20452;-66
2021/04/23 11:54:41;;;;;;;16.80;6.22;;;;;;;;;;5093993;28;20078;-67
2021/04/23 11:57:08;;;;;;;15.05;5.93;;;;;;;;;;5087250;28;20020;-65
2021/04/23 11:59:34;;;;;;;17.58;6.68;;;;;;;;;;5085949;28;20041;-66
2021/04/23 12:01:59;;;;;;;14.65;5.32;;;;;;;;;;5088053;28;20020;-67
2021/04/23 12:04:44;;;;;;;21.50;6.57;;;;;;;;;;5084886;28;20103;-65
2021/04/23 12:07:10;;;;;;;21.65;6.82;;;;;;;;;;5090898;28;20028;-66
2021/04/23 12:09:35;;;;;;;15.13;5.72;;;;;;;;;;5093639;28;20065;-67
2021/04/23 12:12:08;;;;;;;15.57;5.83;;;;;;;;;;5084249;28;20035;-68
2021/04/23 12:14:40;;;;;;;17.23;7.00;;;;;;;;;;5091730;28;20769;-64
2021/04/23 12:17:05;;;;;;;15.45;6.38;;;;;;;;;;5093427;28;20028;-64
2021/04/23 12:19:31;;;;;;;16.00;6.43;;;;;;;;;;5093033;28;20016;-67
2021/04/23 12:21:56;;;;;;;16.25;6.25;;;;;;;;;;5093718;28;20023;-65
2021/04/23 12:24:22;;;;;;;12.95;5.80;;;;;;;;;;5089063;28;20027;-66
2021/04/23 12:26:47;;;;;;;11.57;5.68;;;;;;;;;;5088367;28;20024;-66
2021/04/23 12:29:12;;;;;;;17.13;6.20;;;;;;;;;;5093182;28;20655;-67
2021/04/23 12:31:39;;;;;;;20.30;6.80;;;;;;;;;;5093498;28;20016;-65
2021/04/23 12:34:05;;;;;;;15.40;6.07;;;;;;;;;;5092788;28;20024;-65
2021/04/23 12:36:37;;;;;;;15.30;5.90;;;;;;;;;;5085346;28;20100;-64
2021/04/23 12:39:04;;;;;;;11.45;6.18;;;;;;;;;;5077654;28;20020;-64
2021/04/23 12:41:34;;;;;;;16.63;6.65;;;;;;;;;;5074029;28;20020;-65
2021/04/23 12:43:59;;;;;;;;;;;;;;;;;;5090994;28;20047;-65
2021/04/23 12:46:26;;;;;;;16.45;6.40;;;;;;;;;;5091746;28;19915;-66
2021/04/23 12:48:55;;;;;;;17.50;7.60;;;;;;;;;;5092162;28;20020;-65
2021/04/23 12:51:21;;;;;;;13.80;6.00;;;;;;;;;;5089417;28;20468;-65
2021/04/23 12:53:48;;;;;;;19.65;5.90;;;;;;;;;;5084586;28;20024;-67
2021/04/23 12:56:13;;;;;;;12.15;5.85;;;;;;;;;;5090061;28;20633;-65
2021/04/23 12:58:38;;;;;;;20.58;6.00;;;;;;;;;;5091857;28;20051;-65
2021/04/23 13:01:04;;;;;;;13.27;5.53;;;;;;;;;;5092500;28;20103;-66
2021/04/23 13:03:29;;;;;;;19.88;6.15;;;;;;;;;;5092623;28;20437;-67
2021/04/23 13:05:54;;;;;;;16.80;5.83;;;;;;;;;;5091852;28;20035;-65
2021/04/23 13:08:19;;;;;;;13.37;5.73;;;;;;;;;;5091936;28;20633;-67
2021/04/23 13:10:48;;;;;;;17.33;6.30;;;;;;;;;;5092861;28;20035;-67
2021/04/23 13:13:15;;;;;;;19.02;5.40;;;;;;;;;;5091969;28;20105;-67
2021/04/23 13:15:43;;;;;;;17.90;5.63;;;;;;;;;;5089881;28;20039;-66
2021/04/23 13:18:14;;;;;;;18.33;5.60;;;;;;;;;;5083419;28;20095;-66
2021/04/23 13:20:46;;;;;;;14.95;5.22;;;;;;;;;;5083801;28;20024;-67
2021/04/23 13:23:11;;;;;;;14.38;5.38;;;;;;;;;;5091111;28;20053;-67
2021/04/23 13:25:37;;;;;;;14.70;4.95;;;;;;;;;;5078433;28;20095;-67
2021/04/23 13:28:16;;;;;;;10.25;4.97;;;;;;;;;;5091701;28;20036;-67
2021/04/23 13:30:49;;;;;;;20.67;5.40;;;;;;;;;;5091864;28;20123;-66
2021/04/23 13:33:20;;;;;;;12.10;5.28;;;;;;;;;;5092643;28;20024;-67
2021/04/23 13:35:46;;;;;;;14.55;6.05;;;;;;;;;;5090276;28;20024;-65
2021/04/23 13:38:32;;;;;;;15.63;7.13;;;;;;;;;;5087167;28;20469;-66
2021/04/23 13:41:15;;;;;;;12.80;5.07;;;;;;;;;;5088233;28;20020;-66
2021/04/23 13:43:41;;;;;;;23.05;7.95;;;;;;;;;;5090950;28;20047;-67
2021/04/23 13:46:07;;;;;;;12.68;5.35;;;;;;;;;;5091260;28;20028;-66
2021/04/23 13:48:34;;;;;;;15.90;6.70;;;;;;;;;;5091586;28;20400;-67
2021/04/23 13:51:14;;;;;;;13.90;5.93;;;;;;;;;;5090794;28;20020;-66
2021/04/23 13:53:39;;;;;;;14.35;6.35;;;;;;;;;;5073424;28;20427;-67
2021/04/23 13:56:07;;;;;;;18.58;6.40;;;;;;;;;;5084859;28;20027;-65
2021/04/23 13:58:50;;;;;;;18.52;6.68;;;;;;;;;;5090039;28;20015;-65
2021/04/23 14:01:23;;;;;;;13.13;6.05;;;;;;;;;;5091583;28;20027;-65
2021/04/23 14:03:48;;;;;;;18.77;5.63;;;;;;;;;;5090186;28;20488;-65
2021/04/23 14:06:14;;;;;;;17.40;6.37;;;;;;;;;;5083101;28;20111;-66
2021/04/23 14:08:39;;;;;;;11.43;5.47;;;;;;;;;;5085312;28;20316;-65
2021/04/23 14:11:04;;;;;;;17.43;5.93;;;;;;;;;;5091348;28;20023;-65
2021/04/23 14:13:29;;;;;;;25.70;6.93;;;;;;;;;;5090918;28;20353;-67
2021/04/23 14:15:54;;;;;;;16.77;5.72;;;;;;;;;;5080676;28;20273;-65
2021/04/23 14:18:19;;;;;;;19.77;5.20;;;;;;;;;;5075308;28;20028;-65
2021/04/23 14:20:44;;;;;;;20.52;6.78;;;;;;;;;;5090945;28;20059;-66
2021/04/23 14:23:10;;;;;;;16.13;6.13;;;;;;;;;;5090987;28;20539;-65
2021/04/23 14:25:35;;;;;;;11.55;5.95;;;;;;;;;;5089913;28;20030;-66
2021/04/23 14:28:00;;;;;;;19.85;7.10;;;;;;;;;;5089178;28;20500;-65